sensor_id;sensor_type;location;lat;lon;timestamp;P1;durP1;ratioP1;P2;durP2;ratioP2
25319;SDS011;13256;49.012;8.610;2024-03-23T00:53:17;16.38;;;6.82;;
25319;SDS011;13256;49.012;8.610;2024-03-23T00:55:44;9.88;;;5.70;;
25319;SDS011;13256;49.012;8.610;2024-03-23T00:58:17;12.50;;;6.20;;
25319;SDS011;13256;49.012;8.610;2024-03-23T01:00:46;9.95;;;5.70;;
25319;SDS011;13256;49.012;8.610;2024-03-23T01:03:12;6.72;;;4.93;;
25319;SDS011;13256;49.012;8.610;2024-03-23T01:05:40;8.57;;;5.38;;
25319;SDS011;13256;49.012;8.610;2024-03-23T01:08:07;12.02;;;5.30;;
25319;SDS011;13256;49.012;8.610;2024-03-23T01:10:34;7.18;;;4.63;;
25319;SDS011;13256;49.012;8.610;2024-03-23T01:13:09;15.70;;;4.95;;
25319;SDS011;13256;49.012;8.610;2024-03-23T01:15:36;18.27;;;6.07;;
25319;SDS011;13256;49.012;8.610;2024-03-23T01:18:05;10.48;;;5.22;;
25319;SDS011;13256;49.012;8.610;2024-03-23T01:20:35;20.45;;;5.97;;
25319;SDS011;13256;49.012;8.610;2024-03-23T01:23:02;28.23;;;9.82;;
25319;SDS011;13256;49.012;8.610;2024-03-23T01:25:31;26.08;;;9.73;;
25319;SDS011;13256;49.012;8.610;2024-03-23T01:27:58;24.10;;;8.10;;
25319;SDS011;13256;49.012;8.610;2024-03-23T01:30:25;12.32;;;6.25;;
25319;SDS011;13256;49.012;8.610;2024-03-23T01:33:02;14.35;;;7.28;;
25319;SDS011;13256;49.012;8.610;2024-03-23T01:35:29;43.92;;;15.63;;
25319;SDS011;13256;49.012;8.610;2024-03-23T01:37:57;36.13;;;13.32;;
25319;SDS011;13256;49.012;8.610;2024-03-23T01:40:28;33.80;;;12.23;;
25319;SDS011;13256;49.012;8.610;2024-03-23T01:42:58;27.90;;;11.68;;
25319;SDS011;13256;49.012;8.610;2024-03-23T01:45:30;24.10;;;10.00;;
25319;SDS011;13256;49.012;8.610;2024-03-23T01:48:00;26.17;;;10.25;;
25319;SDS011;13256;49.012;8.610;2024-03-23T01:50:28;21.33;;;9.05;;
25319;SDS011;13256;49.012;8.610;2024-03-23T01:53:00;18.17;;;7.28;;
25319;SDS011;13256;49.012;8.610;2024-03-23T01:55:32;15.73;;;6.28;;
25319;SDS011;13256;49.012;8.610;2024-03-23T01:57:59;12.35;;;5.35;;
25319;SDS011;13256;49.012;8.610;2024-03-23T02:00:43;15.52;;;5.43;;
25319;SDS011;13256;49.012;8.610;2024-03-23T02:03:22;7.53;;;4.82;;
25319;SDS011;13256;49.012;8.610;2024-03-23T02:05:53;6.45;;;3.80;;
25319;SDS011;13256;49.012;8.610;2024-03-23T02:08:24;6.70;;;3.67;;
25319;SDS011;13256;49.012;8.610;2024-03-23T02:10:51;6.43;;;3.50;;
25319;SDS011;13256;49.012;8.610;2024-03-23T02:13:20;8.60;;;3.88;;
25319;SDS011;13256;49.012;8.610;2024-03-23T02:15:47;7.18;;;3.30;;
25319;SDS011;13256;49.012;8.610;2024-03-23T02:18:16;6.60;;;3.47;;
25319;SDS011;13256;49.012;8.610;2024-03-23T02:20:42;6.78;;;3.53;;
25319;SDS011;13256;49.012;8.610;2024-03-23T02:23:14;4.45;;;3.20;;
25319;SDS011;13256;49.012;8.610;2024-03-23T02:25:45;5.05;;;3.35;;
25319;SDS011;13256;49.012;8.610;2024-03-23T02:28:13;3.83;;;2.88;;
25319;SDS011;13256;49.012;8.610;2024-03-23T02:30:43;8.90;;;3.92;;
25319;SDS011;13256;49.012;8.610;2024-03-23T02:33:15;5.25;;;3.13;;
25319;SDS011;13256;49.012;8.610;2024-03-23T02:35:46;5.45;;;3.20;;
25319;SDS011;13256;49.012;8.610;2024-03-23T02:38:14;5.60;;;3.28;;
25319;SDS011;13256;49.012;8.610;2024-03-23T02:40:45;3.35;;;2.47;;
25319;SDS011;13256;49.012;8.610;2024-03-23T02:43:12;8.40;;;2.83;;
25319;SDS011;13256;49.012;8.610;2024-03-23T02:45:40;6.35;;;2.90;;
25319;SDS011;13256;49.012;8.610;2024-03-23T02:48:08;5.13;;;2.75;;
25319;SDS011;13256;49.012;8.610;2024-03-23T02:50:35;5.13;;;3.20;;
25319;SDS011;13256;49.012;8.610;2024-03-23T02:53:02;6.13;;;3.25;;
25319;SDS011;13256;49.012;8.610;2024-03-23T02:55:32;6.40;;;2.88;;
25319;SDS011;13256;49.012;8.610;2024-03-23T02:57:59;8.85;;;3.17;;
25319;SDS011;13256;49.012;8.610;2024-03-23T03:00:28;6.82;;;3.25;;
25319;SDS011;13256;49.012;8.610;2024-03-23T03:02:55;6.75;;;3.80;;
25319;SDS011;13256;49.012;8.610;2024-03-23T03:05:23;7.45;;;4.03;;
25319;SDS011;13256;49.012;8.610;2024-03-23T03:07:51;6.15;;;3.60;;
25319;SDS011;13256;49.012;8.610;2024-03-23T03:10:17;6.85;;;3.80;;
25319;SDS011;13256;49.012;8.610;2024-03-23T03:15:47;7.18;;;4.13;;
25319;SDS011;13256;49.012;8.610;2024-03-23T03:18:14;7.93;;;4.03;;
25319;SDS011;13256;49.012;8.610;2024-03-23T03:20:48;9.35;;;3.85;;
25319;SDS011;13256;49.012;8.610;2024-03-23T03:23:16;8.73;;;4.10;;
25319;SDS011;13256;49.012;8.610;2024-03-23T03:25:48;6.88;;;4.00;;
25319;SDS011;13256;49.012;8.610;2024-03-23T03:28:17;7.97;;;3.80;;
25319;SDS011;13256;49.012;8.610;2024-03-23T03:30:49;10.20;;;4.25;;
25319;SDS011;13256;49.012;8.610;2024-03-23T03:33:22;9.68;;;4.03;;
25319;SDS011;13256;49.012;8.610;2024-03-23T03:39:26;8.60;;;4.82;;
25319;SDS011;13256;49.012;8.610;2024-03-23T03:41:53;8.13;;;4.80;;
25319;SDS011;13256;49.012;8.610;2024-03-23T03:44:20;8.75;;;5.03;;
25319;SDS011;13256;49.012;8.610;2024-03-23T03:46:51;8.48;;;4.68;;
25319;SDS011;13256;49.012;8.610;2024-03-23T03:49:17;10.30;;;4.95;;
25319;SDS011;13256;49.012;8.610;2024-03-23T03:51:51;7.05;;;4.82;;
25319;SDS011;13256;49.012;8.610;2024-03-23T03:54:20;9.32;;;4.57;;
25319;SDS011;13256;49.012;8.610;2024-03-23T03:56:54;9.57;;;4.72;;
25319;SDS011;13256;49.012;8.610;2024-03-23T03:59:29;9.55;;;4.82;;
25319;SDS011;13256;49.012;8.610;2024-03-23T04:04:24;11.95;;;5.40;;
25319;SDS011;13256;49.012;8.610;2024-03-23T04:06:58;10.25;;;5.28;;
25319;SDS011;13256;49.012;8.610;2024-03-23T04:09:28;8.18;;;5.35;;
25319;SDS011;13256;49.012;8.610;2024-03-23T04:11:56;13.48;;;6.32;;
25319;SDS011;13256;49.012;8.610;2024-03-23T04:14:23;13.75;;;6.78;;
25319;SDS011;13256;49.012;8.610;2024-03-23T04:20:00;15.23;;;7.82;;
25319;SDS011;13256;49.012;8.610;2024-03-23T04:22:35;14.63;;;8.48;;
25319;SDS011;13256;49.012;8.610;2024-03-23T04:25:03;15.60;;;8.70;;
25319;SDS011;13256;49.012;8.610;2024-03-23T04:27:35;18.92;;;9.40;;
25319;SDS011;13256;49.012;8.610;2024-03-23T04:30:05;16.33;;;8.43;;
25319;SDS011;13256;49.012;8.610;2024-03-23T04:32:37;15.82;;;8.68;;
25319;SDS011;13256;49.012;8.610;2024-03-23T04:35:04;17.60;;;8.73;;
25319;SDS011;13256;49.012;8.610;2024-03-23T04:37:40;15.85;;;9.45;;
25319;SDS011;13256;49.012;8.610;2024-03-23T04:40:07;14.77;;;8.57;;
25319;SDS011;13256;49.012;8.610;2024-03-23T04:42:37;13.95;;;8.25;;
25319;SDS011;13256;49.012;8.610;2024-03-23T04:45:04;12.57;;;7.78;;
25319;SDS011;13256;49.012;8.610;2024-03-23T04:47:33;13.95;;;8.00;;
25319;SDS011;13256;49.012;8.610;2024-03-23T04:50:03;13.15;;;7.32;;
25319;SDS011;13256;49.012;8.610;2024-03-23T04:52:30;12.60;;;7.57;;
25319;SDS011;13256;49.012;8.610;2024-03-23T04:54:58;13.20;;;7.55;;
25319;SDS011;13256;49.012;8.610;2024-03-23T04:57:25;14.60;;;7.95;;
25319;SDS011;13256;49.012;8.610;2024-03-23T04:59:54;12.27;;;8.02;;
25319;SDS011;13256;49.012;8.610;2024-03-23T05:02:24;15.32;;;7.88;;
25319;SDS011;13256;49.012;8.610;2024-03-23T05:04:53;14.82;;;7.88;;
25319;SDS011;13256;49.012;8.610;2024-03-23T05:07:25;13.23;;;6.70;;
25319;SDS011;13256;49.012;8.610;2024-03-23T05:09:54;17.63;;;7.72;;
25319;SDS011;13256;49.012;8.610;2024-03-23T05:12:21;12.55;;;7.28;;
25319;SDS011;13256;49.012;8.610;2024-03-23T05:14:50;14.32;;;6.40;;
25319;SDS011;13256;49.012;8.610;2024-03-23T05:17:17;11.88;;;6.43;;
25319;SDS011;13256;49.012;8.610;2024-03-23T05:19:44;10.65;;;6.28;;
25319;SDS011;13256;49.012;8.610;2024-03-23T05:22:11;12.95;;;6.95;;
25319;SDS011;13256;49.012;8.610;2024-03-23T05:24:39;12.40;;;6.90;;
25319;SDS011;13256;49.012;8.610;2024-03-23T05:27:19;13.00;;;6.60;;
25319;SDS011;13256;49.012;8.610;2024-03-23T05:29:47;11.10;;;6.63;;
25319;SDS011;13256;49.012;8.610;2024-03-23T05:32:16;13.05;;;6.55;;
25319;SDS011;13256;49.012;8.610;2024-03-23T05:34:43;9.48;;;5.50;;
25319;SDS011;13256;49.012;8.610;2024-03-23T05:37:12;12.40;;;5.63;;
25319;SDS011;13256;49.012;8.610;2024-03-23T05:39:39;8.02;;;4.45;;
25319;SDS011;13256;49.012;8.610;2024-03-23T05:42:06;8.65;;;4.85;;
25319;SDS011;13256;49.012;8.610;2024-03-23T05:44:32;9.20;;;5.13;;
25319;SDS011;13256;49.012;8.610;2024-03-23T05:46:59;12.90;;;5.25;;
25319;SDS011;13256;49.012;8.610;2024-03-23T05:49:30;9.35;;;4.38;;
25319;SDS011;13256;49.012;8.610;2024-03-23T05:51:57;7.90;;;3.72;;
25319;SDS011;13256;49.012;8.610;2024-03-23T05:54:24;4.90;;;2.97;;
25319;SDS011;13256;49.012;8.610;2024-03-23T05:56:54;5.47;;;2.72;;
25319;SDS011;13256;49.012;8.610;2024-03-23T05:59:22;2.28;;;1.40;;
25319;SDS011;13256;49.012;8.610;2024-03-23T06:01:49;3.10;;;1.55;;
25319;SDS011;13256;49.012;8.610;2024-03-23T06:04:15;1.88;;;1.13;;
25319;SDS011;13256;49.012;8.610;2024-03-23T06:06:42;1.20;;;1.10;;
25319;SDS011;13256;49.012;8.610;2024-03-23T06:09:11;2.53;;;1.08;;
25319;SDS011;13256;49.012;8.610;2024-03-23T06:11:39;1.75;;;1.38;;
25319;SDS011;13256;49.012;8.610;2024-03-23T06:14:05;1.73;;;1.27;;
25319;SDS011;13256;49.012;8.610;2024-03-23T06:16:34;1.40;;;1.02;;
25319;SDS011;13256;49.012;8.610;2024-03-23T06:19:03;2.65;;;1.10;;
25319;SDS011;13256;49.012;8.610;2024-03-23T06:21:32;1.98;;;1.13;;
25319;SDS011;13256;49.012;8.610;2024-03-23T06:24:02;1.48;;;1.17;;
25319;SDS011;13256;49.012;8.610;2024-03-23T06:26:30;1.92;;;1.10;;
25319;SDS011;13256;49.012;8.610;2024-03-23T06:28:56;1.85;;;1.00;;
25319;SDS011;13256;49.012;8.610;2024-03-23T06:31:23;1.40;;;1.15;;
25319;SDS011;13256;49.012;8.610;2024-03-23T06:34:05;1.05;;;0.93;;
25319;SDS011;13256;49.012;8.610;2024-03-23T06:36:32;1.00;;;0.90;;
25319;SDS011;13256;49.012;8.610;2024-03-23T06:39:04;3.72;;;1.90;;
25319;SDS011;13256;49.012;8.610;2024-03-23T06:41:31;1.25;;;1.00;;
25319;SDS011;13256;49.012;8.610;2024-03-23T06:44:00;4.18;;;3.25;;
25319;SDS011;13256;49.012;8.610;2024-03-23T06:46:27;5.35;;;3.60;;
25319;SDS011;13256;49.012;8.610;2024-03-23T06:48:56;6.00;;;4.82;;
25319;SDS011;13256;49.012;8.610;2024-03-23T06:51:23;4.82;;;2.78;;
25319;SDS011;13256;49.012;8.610;2024-03-23T06:54:09;1.75;;;1.25;;
25319;SDS011;13256;49.012;8.610;2024-03-23T06:56:35;1.13;;;0.90;;
25319;SDS011;13256;49.012;8.610;2024-03-23T06:59:02;0.80;;;0.80;;
25319;SDS011;13256;49.012;8.610;2024-03-23T07:01:29;0.93;;;0.93;;
25319;SDS011;13256;49.012;8.610;2024-03-23T07:04:01;1.67;;;1.40;;
25319;SDS011;13256;49.012;8.610;2024-03-23T07:06:28;2.33;;;0.88;;
25319;SDS011;13256;49.012;8.610;2024-03-23T07:08:58;1.92;;;0.90;;
25319;SDS011;13256;49.012;8.610;2024-03-23T07:11:25;0.80;;;0.80;;
25319;SDS011;13256;49.012;8.610;2024-03-23T07:13:59;1.05;;;0.60;;
25319;SDS011;13256;49.012;8.610;2024-03-23T07:16:29;1.02;;;0.70;;
25319;SDS011;13256;49.012;8.610;2024-03-23T07:18:57;0.70;;;0.70;;
25319;SDS011;13256;49.012;8.610;2024-03-23T07:21:29;0.70;;;0.65;;
25319;SDS011;13256;49.012;8.610;2024-03-23T07:23:56;0.60;;;0.60;;
25319;SDS011;13256;49.012;8.610;2024-03-23T07:26:26;0.50;;;0.50;;
25319;SDS011;13256;49.012;8.610;2024-03-23T07:28:53;0.47;;;0.47;;
25319;SDS011;13256;49.012;8.610;2024-03-23T07:31:23;0.60;;;0.60;;
25319;SDS011;13256;49.012;8.610;2024-03-23T07:34:00;0.60;;;0.60;;
25319;SDS011;13256;49.012;8.610;2024-03-23T07:36:27;0.57;;;0.57;;
25319;SDS011;13256;49.012;8.610;2024-03-23T07:38:54;0.50;;;0.50;;
25319;SDS011;13256;49.012;8.610;2024-03-23T07:41:38;0.55;;;0.55;;
25319;SDS011;13256;49.012;8.610;2024-03-23T07:44:07;0.73;;;0.52;;
25319;SDS011;13256;49.012;8.610;2024-03-23T07:46:34;1.30;;;0.70;;
25319;SDS011;13256;49.012;8.610;2024-03-23T07:49:15;2.35;;;1.38;;
25319;SDS011;13256;49.012;8.610;2024-03-23T07:51:44;0.50;;;0.50;;
25319;SDS011;13256;49.012;8.610;2024-03-23T07:54:12;0.60;;;0.60;;
25319;SDS011;13256;49.012;8.610;2024-03-23T07:56:41;2.78;;;1.75;;
25319;SDS011;13256;49.012;8.610;2024-03-23T07:59:08;8.35;;;7.22;;
25319;SDS011;13256;49.012;8.610;2024-03-23T08:01:37;3.15;;;2.85;;
25319;SDS011;13256;49.012;8.610;2024-03-23T08:04:03;1.45;;;1.35;;
25319;SDS011;13256;49.012;8.610;2024-03-23T08:06:32;6.95;;;3.00;;
25319;SDS011;13256;49.012;8.610;2024-03-23T08:09:09;2.63;;;1.50;;
25319;SDS011;13256;49.012;8.610;2024-03-23T08:11:41;2.58;;;1.08;;
25319;SDS011;13256;49.012;8.610;2024-03-23T08:14:10;2.00;;;1.05;;
25319;SDS011;13256;49.012;8.610;2024-03-23T08:16:36;2.05;;;1.15;;
25319;SDS011;13256;49.012;8.610;2024-03-23T08:19:03;2.17;;;1.30;;
25319;SDS011;13256;49.012;8.610;2024-03-23T08:21:31;2.83;;;1.00;;
25319;SDS011;13256;49.012;8.610;2024-03-23T08:24:05;4.25;;;1.50;;
25319;SDS011;13256;49.012;8.610;2024-03-23T08:26:32;4.53;;;1.55;;
25319;SDS011;13256;49.012;8.610;2024-03-23T08:29:03;4.03;;;1.45;;
25319;SDS011;13256;49.012;8.610;2024-03-23T08:31:30;6.35;;;1.30;;
25319;SDS011;13256;49.012;8.610;2024-03-23T08:33:57;4.43;;;1.73;;
25319;SDS011;13256;49.012;8.610;2024-03-23T08:36:24;6.47;;;1.65;;
25319;SDS011;13256;49.012;8.610;2024-03-23T08:38:51;4.85;;;2.20;;
25319;SDS011;13256;49.012;8.610;2024-03-23T08:41:22;5.97;;;1.98;;
25319;SDS011;13256;49.012;8.610;2024-03-23T08:43:51;7.88;;;2.53;;
25319;SDS011;13256;49.012;8.610;2024-03-23T08:46:23;7.32;;;2.28;;
25319;SDS011;13256;49.012;8.610;2024-03-23T08:48:51;13.13;;;2.55;;
25319;SDS011;13256;49.012;8.610;2024-03-23T08:51:23;6.10;;;2.00;;
25319;SDS011;13256;49.012;8.610;2024-03-23T08:53:50;9.15;;;2.50;;
25319;SDS011;13256;49.012;8.610;2024-03-23T09:05:27;5.70;;;2.60;;
25319;SDS011;13256;49.012;8.610;2024-03-23T09:07:54;6.57;;;2.30;;
25319;SDS011;13256;49.012;8.610;2024-03-23T09:10:21;7.28;;;2.67;;
25319;SDS011;13256;49.012;8.610;2024-03-23T09:12:48;7.25;;;3.05;;
25319;SDS011;13256;49.012;8.610;2024-03-23T09:15:15;9.63;;;2.70;;
25319;SDS011;13256;49.012;8.610;2024-03-23T09:17:42;7.78;;;2.33;;
25319;SDS011;13256;49.012;8.610;2024-03-23T09:20:09;7.43;;;2.20;;
25319;SDS011;13256;49.012;8.610;2024-03-23T09:22:36;9.10;;;2.63;;
25319;SDS011;13256;49.012;8.610;2024-03-23T09:25:06;8.13;;;2.13;;
25319;SDS011;13256;49.012;8.610;2024-03-23T09:30:04;8.23;;;3.00;;
25319;SDS011;13256;49.012;8.610;2024-03-23T09:32:31;4.35;;;1.90;;
25319;SDS011;13256;49.012;8.610;2024-03-23T09:34:58;9.45;;;3.00;;
25319;SDS011;13256;49.012;8.610;2024-03-23T09:37:25;9.77;;;3.63;;
25319;SDS011;13256;49.012;8.610;2024-03-23T09:39:53;13.48;;;2.88;;
25319;SDS011;13256;49.012;8.610;2024-03-23T09:42:21;6.38;;;2.25;;
25319;SDS011;13256;49.012;8.610;2024-03-23T09:44:51;10.13;;;2.92;;
25319;SDS011;13256;49.012;8.610;2024-03-23T09:47:18;9.48;;;2.85;;
25319;SDS011;13256;49.012;8.610;2024-03-23T09:49:50;7.00;;;2.03;;
25319;SDS011;13256;49.012;8.610;2024-03-23T09:52:18;9.20;;;2.63;;
25319;SDS011;13256;49.012;8.610;2024-03-23T09:54:47;9.57;;;2.00;;
25319;SDS011;13256;49.012;8.610;2024-03-23T09:57:14;6.43;;;2.15;;
25319;SDS011;13256;49.012;8.610;2024-03-23T10:02:47;10.05;;;3.28;;
25319;SDS011;13256;49.012;8.610;2024-03-23T10:05:21;5.88;;;2.50;;
25319;SDS011;13256;49.012;8.610;2024-03-23T10:08:00;5.32;;;1.98;;
25319;SDS011;13256;49.012;8.610;2024-03-23T10:10:45;11.32;;;3.17;;
25319;SDS011;13256;49.012;8.610;2024-03-23T10:13:28;8.63;;;3.00;;
25319;SDS011;13256;49.012;8.610;2024-03-23T10:15:58;9.07;;;2.50;;
25319;SDS011;13256;49.012;8.610;2024-03-23T10:18:27;7.78;;;2.72;;
25319;SDS011;13256;49.012;8.610;2024-03-23T10:21:11;10.95;;;3.08;;
25319;SDS011;13256;49.012;8.610;2024-03-23T10:23:41;10.95;;;3.00;;
25319;SDS011;13256;49.012;8.610;2024-03-23T10:26:20;12.98;;;3.42;;
25319;SDS011;13256;49.012;8.610;2024-03-23T10:28:54;7.63;;;2.80;;
25319;SDS011;13256;49.012;8.610;2024-03-23T10:31:31;9.40;;;2.70;;
25319;SDS011;13256;49.012;8.610;2024-03-23T10:33:58;7.90;;;3.00;;
25319;SDS011;13256;49.012;8.610;2024-03-23T10:36:28;10.60;;;3.20;;
25319;SDS011;13256;49.012;8.610;2024-03-23T10:38:59;12.32;;;3.78;;
25319;SDS011;13256;49.012;8.610;2024-03-23T10:41:29;8.95;;;3.50;;
25319;SDS011;13256;49.012;8.610;2024-03-23T10:43:58;12.45;;;4.00;;
25319;SDS011;13256;49.012;8.610;2024-03-23T10:46:28;6.78;;;3.55;;
25319;SDS011;13256;49.012;8.610;2024-03-23T10:48:57;9.32;;;3.58;;
25319;SDS011;13256;49.012;8.610;2024-03-23T10:51:24;11.70;;;4.20;;
25319;SDS011;13256;49.012;8.610;2024-03-23T10:53:52;11.70;;;3.90;;
25319;SDS011;13256;49.012;8.610;2024-03-23T10:56:21;12.15;;;3.97;;
25319;SDS011;13256;49.012;8.610;2024-03-23T10:58:49;11.20;;;3.75;;
25319;SDS011;13256;49.012;8.610;2024-03-23T11:01:16;5.05;;;2.80;;
25319;SDS011;13256;49.012;8.610;2024-03-23T11:03:47;12.52;;;3.33;;
25319;SDS011;13256;49.012;8.610;2024-03-23T11:12:44;7.85;;;3.17;;
25319;SDS011;13256;49.012;8.610;2024-03-23T11:15:13;7.65;;;2.53;;
25319;SDS011;13256;49.012;8.610;2024-03-23T11:17:40;5.25;;;2.40;;
25319;SDS011;13256;49.012;8.610;2024-03-23T11:20:10;8.18;;;2.80;;
25319;SDS011;13256;49.012;8.610;2024-03-23T11:27:55;9.65;;;2.17;;
25319;SDS011;13256;49.012;8.610;2024-03-23T11:30:27;8.52;;;2.80;;
25319;SDS011;13256;49.012;8.610;2024-03-23T11:32:55;5.60;;;2.22;;
25319;SDS011;13256;49.012;8.610;2024-03-23T11:35:27;7.30;;;2.00;;
25319;SDS011;13256;49.012;8.610;2024-03-23T11:40:33;8.35;;;1.92;;
25319;SDS011;13256;49.012;8.610;2024-03-23T11:43:04;8.73;;;2.40;;
25319;SDS011;13256;49.012;8.610;2024-03-23T11:45:35;2.92;;;1.40;;
25319;SDS011;13256;49.012;8.610;2024-03-23T11:48:16;6.85;;;2.00;;
25319;SDS011;13256;49.012;8.610;2024-03-23T11:50:45;9.27;;;2.35;;
25319;SDS011;13256;49.012;8.610;2024-03-23T11:55:45;6.03;;;1.38;;
25319;SDS011;13256;49.012;8.610;2024-03-23T11:58:24;5.93;;;2.00;;
25319;SDS011;13256;49.012;8.610;2024-03-23T12:03:27;4.82;;;2.25;;
25319;SDS011;13256;49.012;8.610;2024-03-23T12:05:56;3.58;;;2.00;;
25319;SDS011;13256;49.012;8.610;2024-03-23T12:11:11;9.20;;;2.40;;
25319;SDS011;13256;49.012;8.610;2024-03-23T12:13:45;6.35;;;1.90;;
25319;SDS011;13256;49.012;8.610;2024-03-23T12:18:43;5.97;;;2.00;;
25319;SDS011;13256;49.012;8.610;2024-03-23T12:21:11;6.03;;;2.08;;
25319;SDS011;13256;49.012;8.610;2024-03-23T12:23:40;7.57;;;2.80;;
25319;SDS011;13256;49.012;8.610;2024-03-23T12:26:13;7.63;;;1.90;;
25319;SDS011;13256;49.012;8.610;2024-03-23T12:28:40;7.80;;;2.58;;
25319;SDS011;13256;49.012;8.610;2024-03-23T12:31:08;9.98;;;2.33;;
25319;SDS011;13256;49.012;8.610;2024-03-23T12:33:37;4.70;;;1.98;;
25319;SDS011;13256;49.012;8.610;2024-03-23T12:36:03;9.73;;;2.67;;
25319;SDS011;13256;49.012;8.610;2024-03-23T12:38:31;9.23;;;2.15;;
25319;SDS011;13256;49.012;8.610;2024-03-23T12:41:00;10.85;;;2.10;;
25319;SDS011;13256;49.012;8.610;2024-03-23T12:43:26;10.00;;;2.13;;
25319;SDS011;13256;49.012;8.610;2024-03-23T12:45:53;8.43;;;2.20;;
25319;SDS011;13256;49.012;8.610;2024-03-23T12:48:26;7.30;;;1.63;;
25319;SDS011;13256;49.012;8.610;2024-03-23T12:50:56;7.13;;;2.08;;
25319;SDS011;13256;49.012;8.610;2024-03-23T12:53:26;9.25;;;2.25;;
25319;SDS011;13256;49.012;8.610;2024-03-23T12:55:52;8.73;;;2.15;;
25319;SDS011;13256;49.012;8.610;2024-03-23T12:58:19;11.82;;;2.33;;
25319;SDS011;13256;49.012;8.610;2024-03-23T13:00:46;6.63;;;1.92;;
25319;SDS011;13256;49.012;8.610;2024-03-23T13:03:17;7.40;;;1.92;;
25319;SDS011;13256;49.012;8.610;2024-03-23T13:05:46;9.40;;;1.67;;
25319;SDS011;13256;49.012;8.610;2024-03-23T13:08:18;8.00;;;1.73;;
25319;SDS011;13256;49.012;8.610;2024-03-23T13:10:55;6.38;;;1.75;;
25319;SDS011;13256;49.012;8.610;2024-03-23T13:13:25;3.30;;;1.30;;
25319;SDS011;13256;49.012;8.610;2024-03-23T13:16:00;3.03;;;1.02;;
25319;SDS011;13256;49.012;8.610;2024-03-23T13:18:26;4.20;;;1.20;;
25319;SDS011;13256;49.012;8.610;2024-03-23T13:20:55;11.55;;;5.25;;
25319;SDS011;13256;49.012;8.610;2024-03-23T13:23:25;2.08;;;1.30;;
25319;SDS011;13256;49.012;8.610;2024-03-23T13:25:52;5.65;;;2.17;;
25319;SDS011;13256;49.012;8.610;2024-03-23T13:28:24;12.02;;;5.85;;
25319;SDS011;13256;49.012;8.610;2024-03-23T13:30:55;7.97;;;5.10;;
25319;SDS011;13256;49.012;8.610;2024-03-23T13:33:23;5.95;;;2.17;;
25319;SDS011;13256;49.012;8.610;2024-03-23T13:35:56;3.88;;;2.05;;
25319;SDS011;13256;49.012;8.610;2024-03-23T13:43:58;1.40;;;0.90;;
25319;SDS011;13256;49.012;8.610;2024-03-23T13:46:25;2.90;;;0.80;;
25319;SDS011;13256;49.012;8.610;2024-03-23T13:48:52;5.25;;;1.35;;
25319;SDS011;13256;49.012;8.610;2024-03-23T13:51:22;3.10;;;0.50;;
25319;SDS011;13256;49.012;8.610;2024-03-23T13:53:51;2.13;;;0.88;;
25319;SDS011;13256;49.012;8.610;2024-03-23T13:56:18;2.05;;;0.65;;
25319;SDS011;13256;49.012;8.610;2024-03-23T13:58:44;2.42;;;0.60;;
25319;SDS011;13256;49.012;8.610;2024-03-23T14:01:14;2.40;;;0.73;;
25319;SDS011;13256;49.012;8.610;2024-03-23T14:03:42;4.10;;;1.10;;
25319;SDS011;13256;49.012;8.610;2024-03-23T14:06:10;3.33;;;1.13;;
25319;SDS011;13256;49.012;8.610;2024-03-23T14:08:38;3.15;;;0.65;;
25319;SDS011;13256;49.012;8.610;2024-03-23T14:11:08;4.47;;;1.02;;
25319;SDS011;13256;49.012;8.610;2024-03-23T14:13:37;3.60;;;1.40;;
25319;SDS011;13256;49.012;8.610;2024-03-23T14:16:04;3.08;;;0.98;;
25319;SDS011;13256;49.012;8.610;2024-03-23T14:18:31;37.78;;;2.60;;
25319;SDS011;13256;49.012;8.610;2024-03-23T14:21:13;7.88;;;1.55;;
25319;SDS011;13256;49.012;8.610;2024-03-23T14:23:43;6.13;;;1.00;;
25319;SDS011;13256;49.012;8.610;2024-03-23T14:26:14;2.33;;;0.90;;
25319;SDS011;13256;49.012;8.610;2024-03-23T14:28:41;2.60;;;0.70;;
25319;SDS011;13256;49.012;8.610;2024-03-23T14:31:26;1.88;;;0.75;;
25319;SDS011;13256;49.012;8.610;2024-03-23T14:34:03;3.58;;;1.08;;
25319;SDS011;13256;49.012;8.610;2024-03-23T14:36:32;1.38;;;0.77;;
25319;SDS011;13256;49.012;8.610;2024-03-23T14:38:59;1.52;;;0.60;;
25319;SDS011;13256;49.012;8.610;2024-03-23T14:41:33;3.53;;;0.88;;
25319;SDS011;13256;49.012;8.610;2024-03-23T14:44:12;1.48;;;0.73;;
25319;SDS011;13256;49.012;8.610;2024-03-23T14:46:39;1.58;;;0.82;;
25319;SDS011;13256;49.012;8.610;2024-03-23T14:49:06;2.33;;;0.65;;
25319;SDS011;13256;49.012;8.610;2024-03-23T14:51:42;0.90;;;0.80;;
25319;SDS011;13256;49.012;8.610;2024-03-23T14:54:16;2.47;;;0.90;;
25319;SDS011;13256;49.012;8.610;2024-03-23T14:56:47;2.17;;;0.95;;
25319;SDS011;13256;49.012;8.610;2024-03-23T14:59:24;4.25;;;0.80;;
25319;SDS011;13256;49.012;8.610;2024-03-23T15:01:52;2.08;;;0.70;;
25319;SDS011;13256;49.012;8.610;2024-03-23T15:16:03;1.45;;;0.75;;
25319;SDS011;13256;49.012;8.610;2024-03-23T15:18:34;1.08;;;0.57;;
25319;SDS011;13256;49.012;8.610;2024-03-23T15:21:03;1.52;;;0.90;;
25319;SDS011;13256;49.012;8.610;2024-03-23T15:23:38;2.30;;;0.75;;
25319;SDS011;13256;49.012;8.610;2024-03-23T15:26:10;2.65;;;0.80;;
25319;SDS011;13256;49.012;8.610;2024-03-23T15:28:40;2.92;;;0.90;;
25319;SDS011;13256;49.012;8.610;2024-03-23T15:31:29;2.15;;;0.93;;
25319;SDS011;13256;49.012;8.610;2024-03-23T15:33:58;4.15;;;0.70;;
25319;SDS011;13256;49.012;8.610;2024-03-23T15:36:26;2.47;;;1.08;;
25319;SDS011;13256;49.012;8.610;2024-03-23T15:38:55;3.15;;;1.05;;
25319;SDS011;13256;49.012;8.610;2024-03-23T15:41:22;2.70;;;1.35;;
25319;SDS011;13256;49.012;8.610;2024-03-23T15:43:51;4.25;;;1.88;;
25319;SDS011;13256;49.012;8.610;2024-03-23T15:46:18;2.70;;;1.10;;
25319;SDS011;13256;49.012;8.610;2024-03-23T15:48:45;2.45;;;0.95;;
25319;SDS011;13256;49.012;8.610;2024-03-23T15:51:24;1.25;;;0.82;;
25319;SDS011;13256;49.012;8.610;2024-03-23T15:53:59;1.65;;;0.90;;
25319;SDS011;13256;49.012;8.610;2024-03-23T15:56:26;5.30;;;1.73;;
25319;SDS011;13256;49.012;8.610;2024-03-23T15:58:59;4.47;;;1.63;;
25319;SDS011;13256;49.012;8.610;2024-03-23T16:01:32;5.68;;;2.00;;
25319;SDS011;13256;49.012;8.610;2024-03-23T16:04:03;3.20;;;1.17;;
25319;SDS011;13256;49.012;8.610;2024-03-23T16:06:40;1.95;;;1.13;;
25319;SDS011;13256;49.012;8.610;2024-03-23T16:09:07;6.55;;;2.28;;
25319;SDS011;13256;49.012;8.610;2024-03-23T16:11:43;9.27;;;3.88;;
25319;SDS011;13256;49.012;8.610;2024-03-23T16:14:19;2.08;;;1.38;;
25319;SDS011;13256;49.012;8.610;2024-03-23T16:16:46;3.65;;;1.55;;
25319;SDS011;13256;49.012;8.610;2024-03-23T16:19:17;2.58;;;1.10;;
25319;SDS011;13256;49.012;8.610;2024-03-23T16:21:52;5.53;;;1.40;;
25319;SDS011;13256;49.012;8.610;2024-03-23T16:24:25;4.60;;;2.65;;
25319;SDS011;13256;49.012;8.610;2024-03-23T16:27:00;3.45;;;1.52;;
25319;SDS011;13256;49.012;8.610;2024-03-23T16:29:27;4.05;;;1.73;;
25319;SDS011;13256;49.012;8.610;2024-03-23T16:31:59;4.07;;;1.17;;
25319;SDS011;13256;49.012;8.610;2024-03-23T16:34:35;1.48;;;0.85;;
25319;SDS011;13256;49.012;8.610;2024-03-23T16:37:11;2.63;;;1.00;;
25319;SDS011;13256;49.012;8.610;2024-03-23T16:39:37;1.88;;;0.95;;
25319;SDS011;13256;49.012;8.610;2024-03-23T16:42:05;1.45;;;0.70;;
25319;SDS011;13256;49.012;8.610;2024-03-23T16:44:32;5.97;;;1.15;;
25319;SDS011;13256;49.012;8.610;2024-03-23T16:46:59;0.95;;;0.73;;
25319;SDS011;13256;49.012;8.610;2024-03-23T16:49:29;2.13;;;1.00;;
25319;SDS011;13256;49.012;8.610;2024-03-23T16:51:58;1.27;;;0.88;;
25319;SDS011;13256;49.012;8.610;2024-03-23T16:54:28;2.45;;;0.80;;
25319;SDS011;13256;49.012;8.610;2024-03-23T16:56:55;1.60;;;1.10;;
25319;SDS011;13256;49.012;8.610;2024-03-23T16:59:24;5.65;;;1.50;;
25319;SDS011;13256;49.012;8.610;2024-03-23T17:01:54;3.30;;;1.40;;